sensor_id;sensor_type;location;lat;lon;timestamp;P1;durP1;ratioP1;P2;durP2;ratioP2
25657;SDS011;13517;59.320;18.042;2023-05-14T00:02:18;17.33;;;8.68;;
25657;SDS011;13517;59.320;18.042;2023-05-14T00:04:43;21.53;;;9.80;;
25657;SDS011;13517;59.320;18.042;2023-05-14T00:07:08;18.90;;;8.57;;
25657;SDS011;13517;59.320;18.042;2023-05-14T00:09:33;13.57;;;8.38;;
25657;SDS011;13517;59.320;18.042;2023-05-14T00:11:59;15.48;;;9.07;;
25657;SDS011;13517;59.320;18.042;2023-05-14T00:14:24;11.77;;;8.02;;
25657;SDS011;13517;59.320;18.042;2023-05-14T00:16:50;14.63;;;8.65;;
25657;SDS011;13517;59.320;18.042;2023-05-14T00:19:15;19.42;;;9.45;;
25657;SDS011;13517;59.320;18.042;2023-05-14T00:21:40;16.83;;;9.35;;
25657;SDS011;13517;59.320;18.042;2023-05-14T00:24:06;20.13;;;8.48;;
25657;SDS011;13517;59.320;18.042;2023-05-14T00:26:31;20.25;;;9.43;;
25657;SDS011;13517;59.320;18.042;2023-05-14T00:28:56;20.77;;;9.18;;
25657;SDS011;13517;59.320;18.042;2023-05-14T00:31:21;22.45;;;8.90;;
25657;SDS011;13517;59.320;18.042;2023-05-14T00:33:47;19.40;;;8.65;;
25657;SDS011;13517;59.320;18.042;2023-05-14T00:36:12;16.00;;;9.10;;
25657;SDS011;13517;59.320;18.042;2023-05-14T00:38:37;17.83;;;9.07;;
25657;SDS011;13517;59.320;18.042;2023-05-14T00:41:02;12.50;;;9.20;;
25657;SDS011;13517;59.320;18.042;2023-05-14T00:43:28;13.20;;;9.82;;
25657;SDS011;13517;59.320;18.042;2023-05-14T00:45:53;15.15;;;8.73;;
25657;SDS011;13517;59.320;18.042;2023-05-14T00:48:19;14.07;;;8.40;;
25657;SDS011;13517;59.320;18.042;2023-05-14T00:50:45;13.00;;;9.75;;
25657;SDS011;13517;59.320;18.042;2023-05-14T00:53:10;17.67;;;9.43;;
25657;SDS011;13517;59.320;18.042;2023-05-14T00:55:39;27.50;;;10.23;;
25657;SDS011;13517;59.320;18.042;2023-05-14T00:58:06;13.82;;;8.63;;
25657;SDS011;13517;59.320;18.042;2023-05-14T01:00:31;18.85;;;9.38;;
25657;SDS011;13517;59.320;18.042;2023-05-14T01:02:57;20.98;;;9.13;;
25657;SDS011;13517;59.320;18.042;2023-05-14T01:05:25;19.17;;;9.30;;
25657;SDS011;13517;59.320;18.042;2023-05-14T01:08:01;18.55;;;9.55;;
25657;SDS011;13517;59.320;18.042;2023-05-14T01:15:32;19.73;;;9.88;;
25657;SDS011;13517;59.320;18.042;2023-05-14T01:18:02;18.50;;;11.10;;
25657;SDS011;13517;59.320;18.042;2023-05-14T01:20:28;18.92;;;10.40;;
25657;SDS011;13517;59.320;18.042;2023-05-14T01:22:53;23.65;;;10.48;;
25657;SDS011;13517;59.320;18.042;2023-05-14T01:25:18;17.23;;;10.15;;
25657;SDS011;13517;59.320;18.042;2023-05-14T01:30:16;21.08;;;10.73;;
25657;SDS011;13517;59.320;18.042;2023-05-14T01:32:44;13.60;;;10.27;;
25657;SDS011;13517;59.320;18.042;2023-05-14T01:35:09;15.10;;;9.73;;
25657;SDS011;13517;59.320;18.042;2023-05-14T01:37:35;15.40;;;10.10;;
25657;SDS011;13517;59.320;18.042;2023-05-14T01:40:00;19.35;;;10.60;;
25657;SDS011;13517;59.320;18.042;2023-05-14T01:42:26;16.85;;;9.98;;
25657;SDS011;13517;59.320;18.042;2023-05-14T01:44:52;16.52;;;9.93;;
25657;SDS011;13517;59.320;18.042;2023-05-14T01:47:18;19.40;;;10.60;;
25657;SDS011;13517;59.320;18.042;2023-05-14T01:49:43;24.13;;;10.43;;
25657;SDS011;13517;59.320;18.042;2023-05-14T01:52:08;12.75;;;9.80;;
25657;SDS011;13517;59.320;18.042;2023-05-14T01:54:33;17.25;;;9.90;;
25657;SDS011;13517;59.320;18.042;2023-05-14T01:56:59;24.02;;;10.63;;
25657;SDS011;13517;59.320;18.042;2023-05-14T01:59:24;23.80;;;12.20;;
25657;SDS011;13517;59.320;18.042;2023-05-14T02:01:50;19.25;;;11.50;;
25657;SDS011;13517;59.320;18.042;2023-05-14T02:04:15;17.00;;;10.30;;
25657;SDS011;13517;59.320;18.042;2023-05-14T02:06:40;20.45;;;10.85;;
25657;SDS011;13517;59.320;18.042;2023-05-14T02:09:05;15.13;;;9.93;;
25657;SDS011;13517;59.320;18.042;2023-05-14T02:11:31;18.63;;;10.52;;
25657;SDS011;13517;59.320;18.042;2023-05-14T02:13:56;15.90;;;10.90;;
25657;SDS011;13517;59.320;18.042;2023-05-14T02:16:21;15.40;;;10.60;;
25657;SDS011;13517;59.320;18.042;2023-05-14T02:18:46;17.13;;;9.90;;
25657;SDS011;13517;59.320;18.042;2023-05-14T02:21:12;17.67;;;11.07;;
25657;SDS011;13517;59.320;18.042;2023-05-14T02:23:37;17.20;;;10.60;;
25657;SDS011;13517;59.320;18.042;2023-05-14T02:26:02;22.58;;;11.75;;
25657;SDS011;13517;59.320;18.042;2023-05-14T02:28:27;14.48;;;10.90;;
25657;SDS011;13517;59.320;18.042;2023-05-14T02:30:57;17.08;;;10.68;;
25657;SDS011;13517;59.320;18.042;2023-05-14T02:33:22;16.10;;;10.20;;
25657;SDS011;13517;59.320;18.042;2023-05-14T02:35:47;16.95;;;10.05;;
25657;SDS011;13517;59.320;18.042;2023-05-14T02:38:12;18.60;;;10.17;;
25657;SDS011;13517;59.320;18.042;2023-05-14T02:40:38;13.77;;;9.43;;
25657;SDS011;13517;59.320;18.042;2023-05-14T02:43:03;17.75;;;10.85;;
25657;SDS011;13517;59.320;18.042;2023-05-14T02:45:28;17.20;;;10.55;;
25657;SDS011;13517;59.320;18.042;2023-05-14T02:47:53;14.50;;;10.00;;
25657;SDS011;13517;59.320;18.042;2023-05-14T02:50:19;14.40;;;10.13;;
25657;SDS011;13517;59.320;18.042;2023-05-14T02:52:44;23.10;;;10.60;;
25657;SDS011;13517;59.320;18.042;2023-05-14T02:55:09;17.00;;;9.73;;
25657;SDS011;13517;59.320;18.042;2023-05-14T02:57:35;16.65;;;9.32;;
25657;SDS011;13517;59.320;18.042;2023-05-14T03:00:00;13.80;;;8.80;;
25657;SDS011;13517;59.320;18.042;2023-05-14T03:02:26;16.20;;;8.73;;
25657;SDS011;13517;59.320;18.042;2023-05-14T03:04:51;11.20;;;8.77;;
25657;SDS011;13517;59.320;18.042;2023-05-14T03:07:16;12.93;;;8.30;;
25657;SDS011;13517;59.320;18.042;2023-05-14T03:09:42;13.63;;;8.30;;
25657;SDS011;13517;59.320;18.042;2023-05-14T03:12:07;16.97;;;8.33;;
25657;SDS011;13517;59.320;18.042;2023-05-14T03:14:32;16.80;;;8.43;;
25657;SDS011;13517;59.320;18.042;2023-05-14T03:16:57;12.07;;;8.32;;
25657;SDS011;13517;59.320;18.042;2023-05-14T03:19:23;11.47;;;7.93;;
25657;SDS011;13517;59.320;18.042;2023-05-14T03:21:48;13.95;;;7.82;;
25657;SDS011;13517;59.320;18.042;2023-05-14T03:24:14;13.35;;;7.78;;
25657;SDS011;13517;59.320;18.042;2023-05-14T03:26:39;13.75;;;8.23;;
25657;SDS011;13517;59.320;18.042;2023-05-14T03:29:05;16.73;;;8.57;;
25657;SDS011;13517;59.320;18.042;2023-05-14T03:31:30;10.32;;;8.32;;
25657;SDS011;13517;59.320;18.042;2023-05-14T03:33:55;18.45;;;8.30;;
25657;SDS011;13517;59.320;18.042;2023-05-14T03:36:20;16.15;;;8.40;;
25657;SDS011;13517;59.320;18.042;2023-05-14T03:38:46;14.93;;;8.05;;
25657;SDS011;13517;59.320;18.042;2023-05-14T03:41:11;13.60;;;7.80;;
25657;SDS011;13517;59.320;18.042;2023-05-14T03:43:36;16.37;;;7.63;;
25657;SDS011;13517;59.320;18.042;2023-05-14T03:46:01;15.17;;;8.27;;
25657;SDS011;13517;59.320;18.042;2023-05-14T03:48:27;12.43;;;7.43;;
25657;SDS011;13517;59.320;18.042;2023-05-14T03:50:52;11.60;;;8.23;;
25657;SDS011;13517;59.320;18.042;2023-05-14T03:53:17;19.50;;;8.77;;
25657;SDS011;13517;59.320;18.042;2023-05-14T03:55:42;12.30;;;8.20;;
25657;SDS011;13517;59.320;18.042;2023-05-14T03:58:08;18.87;;;9.00;;
25657;SDS011;13517;59.320;18.042;2023-05-14T04:00:38;16.52;;;9.30;;
25657;SDS011;13517;59.320;18.042;2023-05-14T04:03:04;15.57;;;8.60;;
25657;SDS011;13517;59.320;18.042;2023-05-14T04:05:30;15.32;;;8.32;;
25657;SDS011;13517;59.320;18.042;2023-05-14T04:07:55;17.02;;;8.38;;
25657;SDS011;13517;59.320;18.042;2023-05-14T04:10:22;15.35;;;8.15;;
25657;SDS011;13517;59.320;18.042;2023-05-14T04:12:47;16.50;;;8.65;;
25657;SDS011;13517;59.320;18.042;2023-05-14T04:15:12;13.48;;;8.07;;
25657;SDS011;13517;59.320;18.042;2023-05-14T04:17:38;16.08;;;8.38;;
25657;SDS011;13517;59.320;18.042;2023-05-14T04:20:03;13.90;;;8.80;;
25657;SDS011;13517;59.320;18.042;2023-05-14T04:22:28;13.38;;;8.77;;
25657;SDS011;13517;59.320;18.042;2023-05-14T04:24:53;15.18;;;8.95;;
25657;SDS011;13517;59.320;18.042;2023-05-14T04:27:19;16.60;;;9.13;;
25657;SDS011;13517;59.320;18.042;2023-05-14T04:29:45;13.00;;;9.07;;
25657;SDS011;13517;59.320;18.042;2023-05-14T04:32:10;17.38;;;9.38;;
25657;SDS011;13517;59.320;18.042;2023-05-14T04:34:36;14.32;;;9.05;;
25657;SDS011;13517;59.320;18.042;2023-05-14T04:37:01;16.80;;;9.73;;
25657;SDS011;13517;59.320;18.042;2023-05-14T04:39:27;15.65;;;9.10;;
25657;SDS011;13517;59.320;18.042;2023-05-14T04:41:53;13.75;;;9.10;;
25657;SDS011;13517;59.320;18.042;2023-05-14T04:44:18;18.58;;;10.18;;
25657;SDS011;13517;59.320;18.042;2023-05-14T04:46:43;11.83;;;8.87;;
25657;SDS011;13517;59.320;18.042;2023-05-14T04:49:08;15.43;;;9.23;;
25657;SDS011;13517;59.320;18.042;2023-05-14T04:51:33;16.70;;;9.63;;
25657;SDS011;13517;59.320;18.042;2023-05-14T04:53:59;19.77;;;10.13;;
25657;SDS011;13517;59.320;18.042;2023-05-14T04:56:24;15.10;;;10.23;;
25657;SDS011;13517;59.320;18.042;2023-05-14T04:58:49;14.47;;;9.60;;
25657;SDS011;13517;59.320;18.042;2023-05-14T05:01:15;20.67;;;9.88;;
25657;SDS011;13517;59.320;18.042;2023-05-14T05:03:40;22.13;;;10.07;;
25657;SDS011;13517;59.320;18.042;2023-05-14T05:06:05;14.82;;;9.45;;
25657;SDS011;13517;59.320;18.042;2023-05-14T05:08:31;17.50;;;10.07;;
25657;SDS011;13517;59.320;18.042;2023-05-14T05:10:56;18.43;;;10.27;;
25657;SDS011;13517;59.320;18.042;2023-05-14T05:13:21;17.37;;;10.80;;
25657;SDS011;13517;59.320;18.042;2023-05-14T05:15:46;16.85;;;10.10;;
25657;SDS011;13517;59.320;18.042;2023-05-14T05:18:12;18.58;;;9.40;;
25657;SDS011;13517;59.320;18.042;2023-05-14T05:20:37;18.15;;;10.32;;
25657;SDS011;13517;59.320;18.042;2023-05-14T05:23:02;15.80;;;10.37;;
25657;SDS011;13517;59.320;18.042;2023-05-14T05:25:27;14.53;;;10.23;;
25657;SDS011;13517;59.320;18.042;2023-05-14T05:27:53;21.30;;;10.63;;
25657;SDS011;13517;59.320;18.042;2023-05-14T05:30:18;28.00;;;10.83;;
25657;SDS011;13517;59.320;18.042;2023-05-14T05:32:43;21.15;;;10.18;;
25657;SDS011;13517;59.320;18.042;2023-05-14T05:35:09;24.55;;;10.63;;
25657;SDS011;13517;59.320;18.042;2023-05-14T05:37:34;24.30;;;10.20;;
25657;SDS011;13517;59.320;18.042;2023-05-14T05:39:59;19.45;;;11.00;;
25657;SDS011;13517;59.320;18.042;2023-05-14T05:42:25;22.08;;;10.32;;
25657;SDS011;13517;59.320;18.042;2023-05-14T05:44:50;22.25;;;10.07;;
25657;SDS011;13517;59.320;18.042;2023-05-14T05:47:15;19.40;;;10.73;;
25657;SDS011;13517;59.320;18.042;2023-05-14T05:49:41;18.80;;;9.80;;
25657;SDS011;13517;59.320;18.042;2023-05-14T05:52:06;16.80;;;9.70;;
25657;SDS011;13517;59.320;18.042;2023-05-14T05:54:31;20.08;;;9.23;;
25657;SDS011;13517;59.320;18.042;2023-05-14T05:56:57;16.47;;;8.97;;
25657;SDS011;13517;59.320;18.042;2023-05-14T05:59:23;18.17;;;9.30;;
25657;SDS011;13517;59.320;18.042;2023-05-14T06:01:48;16.88;;;8.70;;
25657;SDS011;13517;59.320;18.042;2023-05-14T06:04:14;12.50;;;8.68;;
25657;SDS011;13517;59.320;18.042;2023-05-14T06:06:39;13.02;;;8.93;;
25657;SDS011;13517;59.320;18.042;2023-05-14T06:09:04;18.95;;;8.90;;
25657;SDS011;13517;59.320;18.042;2023-05-14T06:11:31;17.23;;;9.02;;
25657;SDS011;13517;59.320;18.042;2023-05-14T06:13:56;16.98;;;8.88;;
25657;SDS011;13517;59.320;18.042;2023-05-14T06:16:21;16.95;;;8.60;;
25657;SDS011;13517;59.320;18.042;2023-05-14T06:18:46;14.03;;;8.17;;
25657;SDS011;13517;59.320;18.042;2023-05-14T06:21:12;14.68;;;8.07;;
25657;SDS011;13517;59.320;18.042;2023-05-14T06:23:37;11.63;;;8.13;;
25657;SDS011;13517;59.320;18.042;2023-05-14T06:26:02;19.77;;;8.52;;
25657;SDS011;13517;59.320;18.042;2023-05-14T06:28:28;12.85;;;7.40;;
25657;SDS011;13517;59.320;18.042;2023-05-14T06:30:53;13.82;;;7.30;;
25657;SDS011;13517;59.320;18.042;2023-05-14T06:33:19;11.90;;;7.10;;
25657;SDS011;13517;59.320;18.042;2023-05-14T06:35:47;12.10;;;7.00;;
25657;SDS011;13517;59.320;18.042;2023-05-14T06:38:12;11.00;;;6.63;;
25657;SDS011;13517;59.320;18.042;2023-05-14T06:40:37;18.00;;;6.80;;
25657;SDS011;13517;59.320;18.042;2023-05-14T06:43:03;17.67;;;7.43;;
25657;SDS011;13517;59.320;18.042;2023-05-14T06:45:30;11.82;;;6.63;;
25657;SDS011;13517;59.320;18.042;2023-05-14T06:47:55;12.80;;;6.63;;
25657;SDS011;13517;59.320;18.042;2023-05-14T06:50:21;9.50;;;6.57;;
25657;SDS011;13517;59.320;18.042;2023-05-14T06:52:46;12.87;;;6.67;;
25657;SDS011;13517;59.320;18.042;2023-05-14T06:55:12;12.27;;;6.85;;
25657;SDS011;13517;59.320;18.042;2023-05-14T06:57:37;10.95;;;7.13;;
25657;SDS011;13517;59.320;18.042;2023-05-14T07:00:03;15.82;;;6.75;;
25657;SDS011;13517;59.320;18.042;2023-05-14T07:02:28;11.00;;;6.57;;
25657;SDS011;13517;59.320;18.042;2023-05-14T07:04:54;14.73;;;6.90;;
25657;SDS011;13517;59.320;18.042;2023-05-14T07:07:19;12.50;;;7.15;;
25657;SDS011;13517;59.320;18.042;2023-05-14T07:09:45;12.52;;;7.22;;
25657;SDS011;13517;59.320;18.042;2023-05-14T07:12:10;8.35;;;6.65;;
25657;SDS011;13517;59.320;18.042;2023-05-14T07:14:36;17.80;;;6.82;;
25657;SDS011;13517;59.320;18.042;2023-05-14T07:17:01;12.60;;;6.18;;
25657;SDS011;13517;59.320;18.042;2023-05-14T07:19:27;6.82;;;5.75;;
25657;SDS011;13517;59.320;18.042;2023-05-14T07:21:53;14.30;;;6.03;;
25657;SDS011;13517;59.320;18.042;2023-05-14T07:24:18;12.90;;;6.53;;
25657;SDS011;13517;59.320;18.042;2023-05-14T07:26:44;15.97;;;6.63;;
25657;SDS011;13517;59.320;18.042;2023-05-14T07:29:09;8.45;;;6.20;;
25657;SDS011;13517;59.320;18.042;2023-05-14T07:31:34;9.98;;;6.05;;
25657;SDS011;13517;59.320;18.042;2023-05-14T07:34:00;9.25;;;6.47;;
25657;SDS011;13517;59.320;18.042;2023-05-14T07:36:25;11.13;;;6.43;;
25657;SDS011;13517;59.320;18.042;2023-05-14T07:38:50;11.50;;;6.20;;
25657;SDS011;13517;59.320;18.042;2023-05-14T07:41:16;9.77;;;6.07;;
25657;SDS011;13517;59.320;18.042;2023-05-14T07:43:41;9.95;;;6.25;;
25657;SDS011;13517;59.320;18.042;2023-05-14T07:46:06;12.60;;;6.33;;
25657;SDS011;13517;59.320;18.042;2023-05-14T07:48:31;15.27;;;6.10;;
25657;SDS011;13517;59.320;18.042;2023-05-14T07:50:57;12.75;;;5.53;;
25657;SDS011;13517;59.320;18.042;2023-05-14T07:53:22;13.27;;;6.25;;
25657;SDS011;13517;59.320;18.042;2023-05-14T07:55:48;15.98;;;5.95;;
25657;SDS011;13517;59.320;18.042;2023-05-14T07:58:14;16.85;;;6.70;;
25657;SDS011;13517;59.320;18.042;2023-05-14T08:00:40;11.23;;;6.15;;
25657;SDS011;13517;59.320;18.042;2023-05-14T08:03:05;14.55;;;6.10;;
25657;SDS011;13517;59.320;18.042;2023-05-14T08:05:30;7.10;;;5.65;;
25657;SDS011;13517;59.320;18.042;2023-05-14T08:07:56;11.52;;;6.10;;
25657;SDS011;13517;59.320;18.042;2023-05-14T08:10:22;8.65;;;6.13;;
25657;SDS011;13517;59.320;18.042;2023-05-14T08:12:47;12.73;;;5.90;;
25657;SDS011;13517;59.320;18.042;2023-05-14T08:15:12;12.20;;;5.90;;
25657;SDS011;13517;59.320;18.042;2023-05-14T08:17:38;12.05;;;5.50;;
25657;SDS011;13517;59.320;18.042;2023-05-14T08:20:03;13.50;;;5.60;;
25657;SDS011;13517;59.320;18.042;2023-05-14T08:22:30;11.57;;;5.88;;
25657;SDS011;13517;59.320;18.042;2023-05-14T08:24:55;10.87;;;5.83;;
25657;SDS011;13517;59.320;18.042;2023-05-14T08:27:21;10.27;;;5.72;;
25657;SDS011;13517;59.320;18.042;2023-05-14T08:29:46;11.60;;;5.47;;
25657;SDS011;13517;59.320;18.042;2023-05-14T08:32:12;7.90;;;5.45;;
25657;SDS011;13517;59.320;18.042;2023-05-14T08:34:37;16.50;;;5.63;;
25657;SDS011;13517;59.320;18.042;2023-05-14T08:37:02;7.37;;;5.03;;
25657;SDS011;13517;59.320;18.042;2023-05-14T08:39:28;15.63;;;6.18;;
25657;SDS011;13517;59.320;18.042;2023-05-14T08:41:54;9.35;;;5.07;;
25657;SDS011;13517;59.320;18.042;2023-05-14T08:44:20;9.40;;;4.97;;
25657;SDS011;13517;59.320;18.042;2023-05-14T08:46:49;9.88;;;4.85;;
25657;SDS011;13517;59.320;18.042;2023-05-14T08:51:43;12.45;;;5.65;;
25657;SDS011;13517;59.320;18.042;2023-05-14T08:54:12;12.63;;;5.55;;
25657;SDS011;13517;59.320;18.042;2023-05-14T08:56:40;11.13;;;5.22;;
25657;SDS011;13517;59.320;18.042;2023-05-14T08:59:07;11.98;;;4.85;;
25657;SDS011;13517;59.320;18.042;2023-05-14T09:01:32;11.73;;;5.50;;
25657;SDS011;13517;59.320;18.042;2023-05-14T09:03:58;14.90;;;4.72;;
25657;SDS011;13517;59.320;18.042;2023-05-14T09:06:25;11.50;;;4.85;;
25657;SDS011;13517;59.320;18.042;2023-05-14T09:08:51;10.25;;;5.00;;
25657;SDS011;13517;59.320;18.042;2023-05-14T09:11:17;10.52;;;5.07;;
25657;SDS011;13517;59.320;18.042;2023-05-14T09:13:42;14.67;;;5.10;;
25657;SDS011;13517;59.320;18.042;2023-05-14T09:16:07;6.82;;;4.47;;
25657;SDS011;13517;59.320;18.042;2023-05-14T09:18:34;12.35;;;5.57;;
25657;SDS011;13517;59.320;18.042;2023-05-14T09:20:59;7.65;;;4.30;;
25657;SDS011;13517;59.320;18.042;2023-05-14T09:23:25;11.27;;;4.82;;
25657;SDS011;13517;59.320;18.042;2023-05-14T09:25:51;12.18;;;4.88;;
25657;SDS011;13517;59.320;18.042;2023-05-14T09:28:16;9.50;;;4.53;;
25657;SDS011;13517;59.320;18.042;2023-05-14T09:30:45;10.10;;;4.40;;
25657;SDS011;13517;59.320;18.042;2023-05-14T09:33:11;14.50;;;4.60;;
25657;SDS011;13517;59.320;18.042;2023-05-14T09:35:36;9.80;;;4.40;;
25657;SDS011;13517;59.320;18.042;2023-05-14T09:38:04;5.40;;;4.22;;
25657;SDS011;13517;59.320;18.042;2023-05-14T09:40:29;8.25;;;4.22;;
25657;SDS011;13517;59.320;18.042;2023-05-14T09:42:54;20.05;;;4.70;;
25657;SDS011;13517;59.320;18.042;2023-05-14T09:45:20;10.98;;;4.13;;
25657;SDS011;13517;59.320;18.042;2023-05-14T09:47:45;8.18;;;3.67;;
25657;SDS011;13517;59.320;18.042;2023-05-14T09:50:11;6.57;;;3.88;;
25657;SDS011;13517;59.320;18.042;2023-05-14T09:52:36;12.48;;;4.45;;
25657;SDS011;13517;59.320;18.042;2023-05-14T09:55:02;4.95;;;3.83;;
25657;SDS011;13517;59.320;18.042;2023-05-14T09:57:28;6.90;;;3.70;;
25657;SDS011;13517;59.320;18.042;2023-05-14T09:59:53;9.98;;;4.40;;
25657;SDS011;13517;59.320;18.042;2023-05-14T10:02:22;11.27;;;6.63;;
25657;SDS011;13517;59.320;18.042;2023-05-14T10:04:52;10.10;;;5.28;;
25657;SDS011;13517;59.320;18.042;2023-05-14T10:07:20;6.32;;;3.70;;
25657;SDS011;13517;59.320;18.042;2023-05-14T10:09:47;11.27;;;4.60;;
25657;SDS011;13517;59.320;18.042;2023-05-14T10:12:12;8.52;;;3.78;;
25657;SDS011;13517;59.320;18.042;2023-05-14T10:14:39;4.85;;;3.47;;
25657;SDS011;13517;59.320;18.042;2023-05-14T10:17:06;4.97;;;3.25;;
25657;SDS011;13517;59.320;18.042;2023-05-14T10:19:34;11.48;;;3.60;;
25657;SDS011;13517;59.320;18.042;2023-05-14T10:22:06;12.60;;;3.50;;
25657;SDS011;13517;59.320;18.042;2023-05-14T10:24:31;4.55;;;3.08;;
25657;SDS011;13517;59.320;18.042;2023-05-14T10:26:57;5.88;;;3.17;;
25657;SDS011;13517;59.320;18.042;2023-05-14T10:29:35;4.68;;;3.40;;
25657;SDS011;13517;59.320;18.042;2023-05-14T10:32:03;14.20;;;4.10;;
25657;SDS011;13517;59.320;18.042;2023-05-14T10:37:14;7.70;;;3.70;;
25657;SDS011;13517;59.320;18.042;2023-05-14T10:42:07;5.70;;;3.00;;
25657;SDS011;13517;59.320;18.042;2023-05-14T10:44:32;8.32;;;3.33;;
25657;SDS011;13517;59.320;18.042;2023-05-14T10:46:59;9.32;;;3.38;;
25657;SDS011;13517;59.320;18.042;2023-05-14T10:49:25;7.80;;;3.38;;
25657;SDS011;13517;59.320;18.042;2023-05-14T10:51:51;10.10;;;3.22;;
25657;SDS011;13517;59.320;18.042;2023-05-14T10:54:17;11.95;;;3.70;;
25657;SDS011;13517;59.320;18.042;2023-05-14T10:56:44;8.47;;;3.60;;
25657;SDS011;13517;59.320;18.042;2023-05-14T10:59:12;9.02;;;3.85;;
25657;SDS011;13517;59.320;18.042;2023-05-14T11:01:40;6.60;;;3.53;;
25657;SDS011;13517;59.320;18.042;2023-05-14T11:04:06;8.27;;;4.50;;
25657;SDS011;13517;59.320;18.042;2023-05-14T11:06:31;10.90;;;4.07;;
25657;SDS011;13517;59.320;18.042;2023-05-14T11:08:57;6.97;;;3.80;;
25657;SDS011;13517;59.320;18.042;2023-05-14T11:11:25;10.65;;;4.15;;
25657;SDS011;13517;59.320;18.042;2023-05-14T11:13:51;6.57;;;3.83;;
25657;SDS011;13517;59.320;18.042;2023-05-14T11:16:17;8.43;;;4.57;;
25657;SDS011;13517;59.320;18.042;2023-05-14T11:18:43;10.52;;;4.18;;
25657;SDS011;13517;59.320;18.042;2023-05-14T11:21:09;8.85;;;3.72;;
25657;SDS011;13517;59.320;18.042;2023-05-14T11:23:34;10.15;;;3.30;;
25657;SDS011;13517;59.320;18.042;2023-05-14T11:25:59;4.18;;;3.53;;
25657;SDS011;13517;59.320;18.042;2023-05-14T11:28:25;5.07;;;3.30;;
25657;SDS011;13517;59.320;18.042;2023-05-14T11:30:51;5.85;;;3.65;;
25657;SDS011;13517;59.320;18.042;2023-05-14T11:33:16;8.05;;;3.30;;
25657;SDS011;13517;59.320;18.042;2023-05-14T11:35:42;6.60;;;3.85;;
25657;SDS011;13517;59.320;18.042;2023-05-14T11:38:12;4.25;;;3.50;;
25657;SDS011;13517;59.320;18.042;2023-05-14T11:40:38;5.00;;;3.45;;
25657;SDS011;13517;59.320;18.042;2023-05-14T11:43:03;5.30;;;3.58;;
25657;SDS011;13517;59.320;18.042;2023-05-14T11:45:29;8.10;;;3.85;;
25657;SDS011;13517;59.320;18.042;2023-05-14T11:47:54;6.20;;;3.53;;
25657;SDS011;13517;59.320;18.042;2023-05-14T11:50:20;7.57;;;3.70;;
25657;SDS011;13517;59.320;18.042;2023-05-14T11:52:45;5.85;;;3.53;;
25657;SDS011;13517;59.320;18.042;2023-05-14T11:55:12;8.65;;;4.18;;
25657;SDS011;13517;59.320;18.042;2023-05-14T11:57:38;7.78;;;3.67;;
25657;SDS011;13517;59.320;18.042;2023-05-14T12:00:03;6.45;;;3.53;;
25657;SDS011;13517;59.320;18.042;2023-05-14T12:02:31;11.27;;;3.80;;
25657;SDS011;13517;59.320;18.042;2023-05-14T12:04:58;8.63;;;3.78;;
25657;SDS011;13517;59.320;18.042;2023-05-14T12:07:27;9.75;;;3.72;;
25657;SDS011;13517;59.320;18.042;2023-05-14T12:09:52;10.77;;;3.92;;
25657;SDS011;13517;59.320;18.042;2023-05-14T12:12:18;8.80;;;3.57;;
25657;SDS011;13517;59.320;18.042;2023-05-14T12:14:44;4.80;;;3.53;;
25657;SDS011;13517;59.320;18.042;2023-05-14T12:17:16;8.10;;;3.97;;
25657;SDS011;13517;59.320;18.042;2023-05-14T12:19:42;8.38;;;3.67;;
25657;SDS011;13517;59.320;18.042;2023-05-14T12:22:08;6.32;;;3.33;;
25657;SDS011;13517;59.320;18.042;2023-05-14T12:24:34;7.90;;;3.78;;
25657;SDS011;13517;59.320;18.042;2023-05-14T12:27:00;9.07;;;3.55;;
25657;SDS011;13517;59.320;18.042;2023-05-14T12:29:25;9.55;;;3.50;;
25657;SDS011;13517;59.320;18.042;2023-05-14T12:31:51;9.80;;;3.40;;
25657;SDS011;13517;59.320;18.042;2023-05-14T12:34:16;4.93;;;3.60;;
25657;SDS011;13517;59.320;18.042;2023-05-14T12:36:41;7.33;;;3.50;;
25657;SDS011;13517;59.320;18.042;2023-05-14T12:39:07;5.60;;;3.30;;
25657;SDS011;13517;59.320;18.042;2023-05-14T12:41:33;16.05;;;4.20;;
25657;SDS011;13517;59.320;18.042;2023-05-14T12:43:59;6.32;;;3.13;;
25657;SDS011;13517;59.320;18.042;2023-05-14T12:46:24;10.15;;;3.40;;
25657;SDS011;13517;59.320;18.042;2023-05-14T12:48:50;4.75;;;3.35;;
25657;SDS011;13517;59.320;18.042;2023-05-14T12:51:15;6.00;;;3.60;;
25657;SDS011;13517;59.320;18.042;2023-05-14T12:53:41;7.67;;;3.17;;
25657;SDS011;13517;59.320;18.042;2023-05-14T12:56:06;8.05;;;3.80;;
25657;SDS011;13517;59.320;18.042;2023-05-14T12:58:32;5.18;;;3.20;;
25657;SDS011;13517;59.320;18.042;2023-05-14T13:00:57;7.03;;;3.65;;
25657;SDS011;13517;59.320;18.042;2023-05-14T13:03:22;10.43;;;3.43;;
25657;SDS011;13517;59.320;18.042;2023-05-14T13:05:49;5.57;;;3.53;;
25657;SDS011;13517;59.320;18.042;2023-05-14T13:08:15;7.45;;;3.20;;
25657;SDS011;13517;59.320;18.042;2023-05-14T13:10:42;15.85;;;4.22;;
25657;SDS011;13517;59.320;18.042;2023-05-14T13:13:07;8.98;;;3.08;;
25657;SDS011;13517;59.320;18.042;2023-05-14T13:15:33;14.25;;;3.50;;
25657;SDS011;13517;59.320;18.042;2023-05-14T13:17:59;5.95;;;3.50;;
25657;SDS011;13517;59.320;18.042;2023-05-14T13:20:24;5.17;;;2.97;;
25657;SDS011;13517;59.320;18.042;2023-05-14T13:22:51;5.75;;;3.13;;
25657;SDS011;13517;59.320;18.042;2023-05-14T13:25:16;5.93;;;2.78;;
25657;SDS011;13517;59.320;18.042;2023-05-14T13:27:42;6.47;;;3.20;;
25657;SDS011;13517;59.320;18.042;2023-05-14T13:30:07;11.90;;;3.20;;
25657;SDS011;13517;59.320;18.042;2023-05-14T13:32:32;6.10;;;2.83;;
25657;SDS011;13517;59.320;18.042;2023-05-14T13:34:57;6.33;;;2.90;;
25657;SDS011;13517;59.320;18.042;2023-05-14T13:37:23;7.65;;;2.95;;
25657;SDS011;13517;59.320;18.042;2023-05-14T13:39:49;8.18;;;3.20;;
25657;SDS011;13517;59.320;18.042;2023-05-14T13:42:14;10.60;;;2.92;;
25657;SDS011;13517;59.320;18.042;2023-05-14T13:44:40;8.63;;;2.83;;
25657;SDS011;13517;59.320;18.042;2023-05-14T13:47:05;8.23;;;2.85;;
25657;SDS011;13517;59.320;18.042;2023-05-14T13:49:30;6.00;;;2.92;;
25657;SDS011;13517;59.320;18.042;2023-05-14T13:51:56;5.07;;;3.00;;
25657;SDS011;13517;59.320;18.042;2023-05-14T13:54:21;12.37;;;3.60;;
25657;SDS011;13517;59.320;18.042;2023-05-14T13:56:46;10.27;;;3.43;;
25657;SDS011;13517;59.320;18.042;2023-05-14T13:59:11;5.20;;;2.90;;
25657;SDS011;13517;59.320;18.042;2023-05-14T14:01:37;6.07;;;3.17;;
25657;SDS011;13517;59.320;18.042;2023-05-14T14:04:02;6.63;;;3.30;;
25657;SDS011;13517;59.320;18.042;2023-05-14T14:06:29;4.40;;;2.80;;
25657;SDS011;13517;59.320;18.042;2023-05-14T14:08:54;5.20;;;3.42;;
25657;SDS011;13517;59.320;18.042;2023-05-14T14:11:20;5.85;;;2.97;;
25657;SDS011;13517;59.320;18.042;2023-05-14T14:13:46;7.53;;;2.90;;
25657;SDS011;13517;59.320;18.042;2023-05-14T14:16:11;6.15;;;3.00;;
25657;SDS011;13517;59.320;18.042;2023-05-14T14:18:36;6.73;;;3.03;;
25657;SDS011;13517;59.320;18.042;2023-05-14T14:21:01;7.53;;;3.53;;
25657;SDS011;13517;59.320;18.042;2023-05-14T14:23:27;6.13;;;3.10;;
25657;SDS011;13517;59.320;18.042;2023-05-14T14:25:52;9.45;;;3.65;;
25657;SDS011;13517;59.320;18.042;2023-05-14T14:28:17;7.73;;;3.17;;
25657;SDS011;13517;59.320;18.042;2023-05-14T14:30:43;6.72;;;3.28;;